Time;durP1;ratioP1;P1;durP2;ratioP2;P2;SDS_P1;SDS_P2;PMS_P1;PMS_P2;Temp;Humidity;BMP_temperature;BMP_pressure;BME280_temperature;BME280_humidity;BME280_pressure;Samples;Min_cycle;Max_cycle;Signal;HPM_P1;HPM_P2
2021/09/06 00:00:29;;;;;;;;;;;;;;;22.72;71.30;102063.09;7287174;19;153403;-51
2021/09/06 00:02:57;;;;;;;;;;;;;;;22.73;71.89;102059.16;7284674;19;154025;-52
2021/09/06 00:05:24;;;;;;;;;;;;;;;22.73;71.72;102053.53;7292412;19;151874;-51
2021/09/06 00:07:51;;;;;;;;;;;;;;;22.74;71.62;102055.22;7284533;19;154141;-50
2021/09/06 00:10:20;;;;;;;;;;;;;;;22.75;71.93;102050.41;7287504;19;151721;-51
2021/09/06 00:12:47;;;;;;;;;;;;;;;22.75;71.66;102054.06;7285339;19;152628;-50
2021/09/06 00:15:14;;;;;;;;;;;;;;;22.76;72.01;102050.09;7285335;19;153440;-50
2021/09/06 00:17:41;;;;;;;;;;;;;;;22.77;71.95;102060.25;7288294;19;151919;-50
2021/09/06 00:20:08;;;;;;;;;;;;;;;22.77;72.24;102048.97;7287579;19;153289;-51
2021/09/06 00:22:34;;;;;;;;;;;;;;;22.77;72.05;102043.34;7287941;19;154205;-50
2021/09/06 00:25:01;;;;;;;;;;;;;;;22.79;72.32;102054.31;7288764;19;151676;-50
2021/09/06 00:27:28;;;;;;;;;;;;;;;22.78;72.20;102052.63;7293566;19;153463;-51
2021/09/06 00:29:55;;;;;;;;;;;;;;;22.79;72.32;102051.50;7285940;19;152087;-49
2021/09/06 00:32:22;;;;;;;;;;;;;;;22.80;72.41;102056.00;7289518;19;152676;-50
2021/09/06 00:34:49;;;;;;;;;;;;;;;22.80;72.00;102059.66;7285123;19;152590;-50
2021/09/06 00:37:16;;;;;;;;;;;;;;;22.80;72.29;102056.00;7287278;19;151706;-50
2021/09/06 00:39:42;;;;;;;;;;;;;;;22.81;72.54;102057.66;7286798;19;152049;-50
2021/09/06 00:42:09;;;;;;;;;;;;;;;22.81;72.51;102054.84;7286871;19;153048;-50
2021/09/06 00:44:36;;;;;;;;;;;;;;;22.80;72.21;102051.22;7289367;19;151635;-51
2021/09/06 00:47:03;;;;;;;;;;;;;;;22.81;72.22;102054.84;7285921;19;153822;-50
2021/09/06 00:49:30;;;;;;;;;;;;;;;22.83;72.99;102058.22;7292821;19;153337;-51
2021/09/06 00:51:57;;;;;;;;;;;;;;;22.83;72.17;102052.59;7282710;19;153338;-50
2021/09/06 00:54:24;;;;;;;;;;;;;;;22.83;72.75;102049.75;7282255;19;155911;-50
2021/09/06 00:56:51;;;;;;;;;;;;;;;22.83;72.49;102049.75;7287746;19;151648;-50
2021/09/06 00:59:18;;;;;;;;;;;;;;;22.82;72.44;102048.06;7287039;19;153321;-51
2021/09/06 01:01:44;;;;;;;;;;;;;;;22.81;72.63;102058.50;7283501;19;154125;-49
2021/09/06 01:04:12;;;;;;;;;;;;;;;22.83;72.98;102052.59;7285788;19;151733;-50
2021/09/06 01:06:38;;;;;;;;;;;;;;;22.82;72.78;102053.72;7284799;19;152062;-50
2021/09/06 01:09:05;;;;;;;;;;;;;;;22.82;72.93;102054.56;7284420;19;153386;-51
2021/09/06 01:11:32;;;;;;;;;;;;;;;22.82;72.61;102048.91;7290811;19;153162;-51
2021/09/06 01:14:00;;;;;;;;;;;;;;;22.85;73.09;102047.50;7283939;19;153407;-50
2021/09/06 01:16:27;;;;;;;;;;;;;;;22.85;72.93;102053.13;7282482;19;152291;-51
2021/09/06 01:18:54;;;;;;;;;;;;;;;22.86;73.43;102051.97;7285818;19;152670;-50
2021/09/06 01:21:20;;;;;;;;;;;;;;;22.87;73.25;102053.66;7283714;19;153556;-51
2021/09/06 01:23:47;;;;;;;;;;;;;;;;;;7286726;19;151826;-50
2021/09/06 01:26:13;;;;;;;;;;;;;;;22.86;73.01;102040.69;7284456;19;181564;-51
2021/09/06 01:28:40;;;;;;;;;;;;;;;22.85;72.94;102045.50;7283419;19;153248;-50
2021/09/06 01:31:07;;;;;;;;;;;;;;;22.85;73.19;102044.69;7289950;19;158108;-50
2021/09/06 01:33:34;;;;;;;;;;;;;;;22.85;72.86;102050.31;7284539;19;153434;-50
2021/09/06 01:36:01;;;;;;;;;;;;;;;22.84;73.11;102049.47;7286777;19;151744;-50
2021/09/06 01:38:28;;;;;;;;;;;;;;;22.85;73.51;102053.13;7283103;19;153279;-50
2021/09/06 01:40:54;;;;;;;;;;;;;;;22.84;73.30;102057.94;7285084;19;152698;-50
2021/09/06 01:43:21;;;;;;;;;;;;;;;22.85;73.94;102061.59;7284218;19;151841;-50
2021/09/06 01:45:48;;;;;;;;;;;;;;;22.85;73.00;102053.13;7284135;19;153328;-50
2021/09/06 01:48:15;;;;;;;;;;;;;;;22.84;73.57;102054.28;7283925;19;153487;-50
2021/09/06 01:50:42;;;;;;;;;;;;;;;22.84;73.08;102051.44;7283921;19;151825;-49
2021/09/06 01:53:08;;;;;;;;;;;;;;;22.85;73.81;102050.31;7286319;19;153169;-49
2021/09/06 01:55:35;;;;;;;;;;;;;;;22.84;73.78;102057.94;7279127;19;151979;-50
2021/09/06 01:58:02;;;;;;;;;;;;;;;22.85;73.48;102056.78;7285103;19;154473;-50
2021/09/06 02:00:28;;;;;;;;;;;;;;;22.87;74.04;102053.66;7282451;19;153741;-50
2021/09/06 02:02:55;;;;;;;;;;;;;;;22.88;73.84;102061.00;7284240;19;151727;-50
2021/09/06 02:05:22;;;;;;;;;;;;;;;22.88;74.34;102055.34;7285453;19;153504;-50
2021/09/06 02:07:51;;;;;;;;;;;;;;;22.86;74.08;102051.97;7281148;19;152721;-50
2021/09/06 02:10:18;;;;;;;;;;;;;;;;;;7285591;19;151708;-49
2021/09/06 02:12:45;;;;;;;;;;;;;;;22.86;74.09;102057.63;7277690;19;182419;-50
2021/09/06 02:15:11;;;;;;;;;;;;;;;;;;7290166;19;152483;-50
2021/09/06 02:17:38;;;;;;;;;;;;;;;22.85;74.69;102055.97;7284058;19;182116;-50
2021/09/06 02:20:05;;;;;;;;;;;;;;;22.85;74.33;102058.78;7281866;19;152836;-51
2021/09/06 02:22:32;;;;;;;;;;;;;;;;;;7284597;19;151862;-50
2021/09/06 02:24:58;;;;;;;;;;;;;;;22.87;74.54;102059.31;7283370;19;182446;-50
2021/09/06 02:27:25;;;;;;;;;;;;;;;;;;7282376;19;154012;-50
2021/09/06 02:29:51;;;;;;;;;;;;;;;22.87;74.59;102053.66;7284807;19;158901;-50
2021/09/06 02:32:18;;;;;;;;;;;;;;;22.86;74.39;102054.78;7278911;19;152966;-49
2021/09/06 02:34:45;;;;;;;;;;;;;;;;;;7278296;19;152335;-50
2021/09/06 02:37:11;;;;;;;;;;;;;;;22.85;74.44;102047.50;7290317;19;158606;-50
2021/09/06 02:39:38;;;;;;;;;;;;;;;22.86;74.40;102049.16;7283815;19;153912;-50
2021/09/06 02:42:05;;;;;;;;;;;;;;;22.85;74.53;102047.50;7284226;19;152065;-51
2021/09/06 02:44:32;;;;;;;;;;;;;;;22.85;74.67;102044.69;7284173;19;152167;-50
2021/09/06 02:47:00;;;;;;;;;;;;;;;22.85;74.14;102053.13;7283622;19;153789;-50
2021/09/06 02:49:26;;;;;;;;;;;;;;;22.85;74.12;102053.13;7284190;19;152329;-51
2021/09/06 02:51:53;;;;;;;;;;;;;;;22.86;74.13;102049.16;7282364;19;153440;-50
2021/09/06 02:54:20;;;;;;;;;;;;;;;22.87;74.29;102048.03;7277574;19;152322;-50
2021/09/06 02:56:46;;;;;;;;;;;;;;;;;;7276667;19;152001;-50
2021/09/06 02:59:13;;;;;;;;;;;;;;;22.88;74.10;102044.06;7287641;19;183286;-50
2021/09/06 03:01:40;;;;;;;;;;;;;;;22.88;74.29;102046.91;7283523;19;152529;-50
2021/09/06 03:04:07;;;;;;;;;;;;;;;22.88;74.29;102044.06;7283375;19;153847;-50
2021/09/06 03:06:34;;;;;;;;;;;;;;;22.88;74.21;102055.34;7279299;19;154237;-50
2021/09/06 03:09:00;;;;;;;;;;;;;;;22.88;73.89;102042.09;7280470;19;152224;-50
2021/09/06 03:11:27;;;;;;;;;;;;;;;22.87;74.35;102042.38;7279576;19;153318;-50
2021/09/06 03:13:54;;;;;;;;;;;;;;;22.85;74.08;102045.50;7280716;19;153811;-50
2021/09/06 03:16:22;;;;;;;;;;;;;;;22.86;73.84;102043.53;7280858;19;151942;-50
2021/09/06 03:18:49;;;;;;;;;;;;;;;;;;7282314;19;153884;-50
2021/09/06 03:21:15;;;;;;;;;;;;;;;22.85;74.27;102048.31;7284298;19;151869;-51
2021/09/06 03:23:42;;;;;;;;;;;;;;;22.86;74.28;102046.34;7281555;19;153547;-50
2021/09/06 03:26:09;;;;;;;;;;;;;;;;;;7287794;19;154340;-50
2021/09/06 03:28:35;;;;;;;;;;;;;;;22.86;74.49;102043.53;7288996;19;159284;-50
2021/09/06 03:31:03;;;;;;;;;;;;;;;;;;7288894;19;153034;-50
2021/09/06 03:33:30;;;;;;;;;;;;;;;22.87;74.69;102031.13;7286290;19;183201;-50
2021/09/06 03:35:56;;;;;;;;;;;;;;;22.88;74.37;102038.44;7289566;19;152482;-49
2021/09/06 03:38:23;;;;;;;;;;;;;;;22.88;74.29;102032.81;7286917;19;152103;-50
2021/09/06 03:40:50;;;;;;;;;;;;;;;;;;7294109;19;153988;-50
2021/09/06 03:43:16;;;;;;;;;;;;;;;22.86;74.21;102023.78;7288242;19;180923;-50
2021/09/06 03:45:43;;;;;;;;;;;;;;;22.86;74.94;102026.63;7287810;19;152772;-51
2021/09/06 03:48:10;;;;;;;;;;;;;;;22.84;74.31;102021.28;7286470;19;152025;-51
2021/09/06 03:50:36;;;;;;;;;;;;;;;22.85;74.53;102033.41;7287748;19;153225;-51
2021/09/06 03:53:03;;;;;;;;;;;;;;;22.85;74.36;102024.97;7283039;19;153388;-50
2021/09/06 03:55:30;;;;;;;;;;;;;;;22.84;74.69;102026.94;7286546;19;151900;-51
2021/09/06 03:57:56;;;;;;;;;;;;;;;;;;7283818;19;153368;-51
2021/09/06 04:00:23;;;;;;;;;;;;;;;22.85;74.76;102033.41;7285806;19;181513;-50
2021/09/06 04:02:50;;;;;;;;;;;;;;;22.84;74.96;102034.53;7297325;19;151731;-50
2021/09/06 04:05:17;;;;;;;;;;;;;;;;;;7287045;19;153248;-50
2021/09/06 04:07:44;;;;;;;;;;;;;;;22.85;74.78;102033.41;7288175;19;157905;-50
2021/09/06 04:10:11;;;;;;;;;;;;;;;22.84;74.48;102038.19;7286327;19;152170;-50
2021/09/06 04:12:38;;;;;;;;;;;;;;;22.84;74.87;102037.34;7283038;19;153384;-50
2021/09/06 04:15:05;;;;;;;;;;;;;;;22.83;75.22;102030.03;7287799;19;152058;-50
2021/09/06 04:17:32;;;;;;;;;;;;;;;22.84;75.01;102028.91;7287557;19;151924;-50
2021/09/06 04:19:59;;;;;;;;;;;;;;;22.85;75.02;102027.78;7285309;19;154096;-50
2021/09/06 04:22:26;;;;;;;;;;;;;;;22.83;74.89;102022.44;7287134;19;152088;-50
2021/09/06 04:24:52;;;;;;;;;;;;;;;22.83;74.66;102030.03;7292914;19;152777;-50
2021/09/06 04:27:19;;;;;;;;;;;;;;;22.83;74.83;102028.06;7286890;19;152096;-50
2021/09/06 04:29:46;;;;;;;;;;;;;;;22.86;74.59;102032.25;7283858;19;153751;-49
2021/09/06 04:32:12;;;;;;;;;;;;;;;;;;7284266;19;152839;-50
2021/09/06 04:34:39;;;;;;;;;;;;;;;22.84;74.79;102037.34;7285557;19;160630;-50
2021/09/06 04:37:07;;;;;;;;;;;;;;;22.83;74.62;102035.69;7284861;19;153631;-51
2021/09/06 04:39:34;;;;;;;;;;;;;;;22.82;74.63;102037.66;7283584;19;152258;-50
2021/09/06 04:42:00;;;;;;;;;;;;;;;22.81;74.09;102041.59;7285553;19;152064;-52
2021/09/06 04:44:27;;;;;;;;;;;;;;;22.81;74.16;102038.78;7287875;19;153488;-50
2021/09/06 04:46:54;;;;;;;;;;;;;;;22.80;73.90;102041.91;7293106;19;153902;-51
2021/09/06 04:49:21;;;;;;;;;;;;;;;22.80;73.79;102041.91;7288832;19;153207;-51
2021/09/06 04:51:47;;;;;;;;;;;;;;;22.78;73.42;102035.72;7284458;19;154283;-49
2021/09/06 04:54:16;;;;;;;;;;;;;;;22.78;73.24;102030.94;7284775;19;152290;-50
2021/09/06 04:56:43;;;;;;;;;;;;;;;22.77;73.58;102036.84;7281252;19;152822;-50
2021/09/06 04:59:09;;;;;;;;;;;;;;;22.77;73.74;102043.34;7280783;19;154117;-50
2021/09/06 05:01:40;;;;;;;;;;;;;;;22.76;73.61;102043.66;7284822;19;152440;-51
2021/09/06 05:04:07;;;;;;;;;;;;;;;22.74;73.53;102045.91;7287742;19;153336;-50
2021/09/06 05:06:33;;;;;;;;;;;;;;;22.75;73.19;102044.78;7285175;19;153963;-50
2021/09/06 05:09:00;;;;;;;;;;;;;;;22.73;73.39;102041.41;7292829;19;151836;-51
2021/09/06 05:11:28;;;;;;;;;;;;;;;22.74;73.26;102049.56;7284795;19;152401;-50
2021/09/06 05:13:55;;;;;;;;;;;;;;;22.73;73.46;102047.88;7284285;19;152336;-50
2021/09/06 05:16:22;;;;;;;;;;;;;;;22.73;73.46;102049.84;7286207;19;153690;-51
2021/09/06 05:18:48;;;;;;;;;;;;;;;22.77;73.55;102048.13;7285612;19;153681;-50
2021/09/06 05:21:15;;;;;;;;;;;;;;;22.76;72.79;102052.91;7287334;19;152377;-49
2021/09/06 05:23:42;;;;;;;;;;;;;;;22.76;73.16;102052.91;7285680;19;154058;-50
2021/09/06 05:26:09;;;;;;;;;;;;;;;22.75;73.02;102056.91;7285998;19;153430;-50
2021/09/06 05:28:35;;;;;;;;;;;;;;;22.75;73.33;102061.69;7294444;19;151927;-49
2021/09/06 05:31:03;;;;;;;;;;;;;;;22.73;73.43;102058.31;7282179;19;153396;-51
2021/09/06 05:33:30;;;;;;;;;;;;;;;22.74;73.41;102051.53;7281665;19;152187;-50
2021/09/06 05:35:56;;;;;;;;;;;;;;;22.72;73.58;102067.91;7285034;19;153273;-50
2021/09/06 05:38:23;;;;;;;;;;;;;;;22.72;73.60;102076.34;7282653;19;153701;-50
2021/09/06 05:40:50;;;;;;;;;;;;;;;22.72;73.39;102070.72;7282948;19;151923;-49
2021/09/06 05:43:16;;;;;;;;;;;;;;;22.70;72.78;102065.38;7284425;19;152067;-49
2021/09/06 05:45:43;;;;;;;;;;;;;;;22.70;72.48;102064.56;7284275;19;153661;-49
2021/09/06 05:48:10;;;;;;;;;;;;;;;22.68;72.75;102067.63;7283058;19;152478;-50
2021/09/06 05:50:37;;;;;;;;;;;;;;;22.67;72.83;102067.94;7293250;19;152720;-49
2021/09/06 05:53:03;;;;;;;;;;;;;;;22.63;72.66;102071.31;7281658;19;156524;-50
2021/09/06 05:55:30;;;;;;;;;;;;;;;22.67;72.65;102076.38;7286357;19;152356;-50
2021/09/06 05:57:57;;;;;;;;;;;;;;;22.66;72.69;102069.06;7278312;19;154422;-49
2021/09/06 06:00:24;;;;;;;;;;;;;;;22.67;72.60;102076.38;7284093;19;152319;-49
2021/09/06 06:02:50;;;;;;;;;;;;;;;22.71;73.08;102074.69;7285249;19;152608;-50
2021/09/06 06:05:17;;;;;;;;;;;;;;;22.69;72.89;102079.72;7283754;19;153933;-50
2021/09/06 06:07:44;;;;;;;;;;;;;;;22.69;72.92;102088.19;7285451;19;151875;-50
2021/09/06 06:10:11;;;;;;;;;;;;;;;22.68;72.44;102094.94;7284231;19;153501;-50
2021/09/06 06:12:38;;;;;;;;;;;;;;;22.71;72.85;102097.22;7289314;19;153786;-50
2021/09/06 06:15:05;;;;;;;;;;;;;;;22.68;72.75;102090.16;7283316;19;152836;-50
2021/09/06 06:17:32;;;;;;;;;;;;;;;22.66;72.61;102089.63;7280809;19;153309;-50
2021/09/06 06:19:59;;;;;;;;;;;;;;;22.65;72.97;102099.22;7286286;19;151846;-49
2021/09/06 06:22:26;;;;;;;;;;;;;;;22.64;72.79;102097.53;7281641;19;152672;-49
2021/09/06 06:24:53;;;;;;;;;;;;;;;22.65;72.99;102098.38;7283848;19;152966;-49
2021/09/06 06:27:20;;;;;;;;;;;;;;;22.69;72.97;102097.47;7281274;19;152798;-50
2021/09/06 06:29:46;;;;;;;;;;;;;;;22.66;72.65;102100.91;7284015;19;153265;-50
2021/09/06 06:32:13;;;;;;;;;;;;;;;22.66;72.92;102091.59;7284547;19;153902;-50
2021/09/06 06:34:42;;;;;;;;;;;;;;;22.53;70.20;102099.56;7292235;19;152436;-50
2021/09/06 06:37:09;;;;;;;;;;;;;;;22.41;69.77;102096.31;7283463;19;154222;-50
2021/09/06 06:39:35;;;;;;;;;;;;;;;22.45;69.06;102097.41;7283030;19;151880;-51
2021/09/06 06:42:02;;;;;;;;;;;;;;;22.43;69.63;102099.69;7284408;19;152706;-50
2021/09/06 06:44:29;;;;;;;;;;;;;;;22.41;69.83;102098.28;7280067;19;152181;-50
2021/09/06 06:47:01;;;;;;;;;;;;;;;22.39;69.88;102097.75;7284631;19;152596;-50
2021/09/06 06:49:27;;;;;;;;;;;;;;;22.39;70.46;102103.38;7282755;19;153531;-51
2021/09/06 06:51:54;;;;;;;;;;;;;;;22.38;70.17;102104.50;7281985;19;153258;-50
2021/09/06 06:54:21;;;;;;;;;;;;;;;22.37;70.12;102106.47;7278811;19;151714;-50
2021/09/06 06:56:48;;;;;;;;;;;;;;;22.35;70.26;102097.47;7287475;19;152730;-50
2021/09/06 06:59:14;;;;;;;;;;;;;;;22.35;70.13;102107.91;7276814;19;152368;-51
2021/09/06 07:01:41;;;;;;;;;;;;;;;22.33;70.24;102110.16;7284416;19;153857;-50
2021/09/06 07:04:08;;;;;;;;;;;;;;;22.32;70.41;102109.31;7279565;19;154095;-50
2021/09/06 07:06:35;;;;;;;;;;;;;;;22.30;70.24;102117.25;7284589;19;151858;-50
2021/09/06 07:09:02;;;;;;;;;;;;;;;22.33;70.21;102121.44;7281970;19;153711;-50
2021/09/06 07:11:29;;;;;;;;;;;;;;;22.34;69.85;102109.03;7281612;19;152736;-51
2021/09/06 07:13:56;;;;;;;;;;;;;;;22.38;70.19;102116.63;7281500;19;152250;-51
2021/09/06 07:16:22;;;;;;;;;;;;;;;22.35;70.15;102119.19;7282426;19;152431;-50
2021/09/06 07:18:50;;;;;;;;;;;;;;;22.34;70.21;102115.50;7288310;19;152352;-50
2021/09/06 07:21:17;;;;;;;;;;;;;;;22.35;70.65;102122.81;7282064;19;153258;-50
2021/09/06 07:23:44;;;;;;;;;;;;;;;22.33;70.85;102119.47;7279905;19;153325;-50
2021/09/06 07:26:11;;;;;;;;;;;;;;;22.35;70.98;102130.44;7282219;19;154675;-50
2021/09/06 07:28:37;;;;;;;;;;;;;;;22.33;70.88;102127.91;7282710;19;153340;-51
2021/09/06 07:31:04;;;;;;;;;;;;;;;22.33;71.02;102130.72;7278473;19;153434;-51
2021/09/06 07:33:31;;;;;;;;;;;;;;;22.34;70.64;102126.78;7279356;19;152597;-50
2021/09/06 07:35:58;;;;;;;;;;;;;;;22.35;70.75;102120.00;7280961;19;153988;-49
2021/09/06 07:38:25;;;;;;;;;;;;;;;22.35;70.89;102117.16;7289073;19;154076;-50
2021/09/06 07:40:51;;;;;;;;;;;;;;;22.34;70.74;102123.97;7283362;19;153193;-51
2021/09/06 07:43:19;;;;;;;;;;;;;;;22.36;70.96;102126.47;7279078;19;153285;-50
2021/09/06 07:45:47;;;;;;;;;;;;;;;22.36;70.67;102120.84;7283424;19;151905;-50
2021/09/06 07:48:14;;;;;;;;;;;;;;;22.35;71.04;102130.44;7283667;19;153848;-50
2021/09/06 07:50:42;;;;;;;;;;;;;;;22.36;71.11;102127.31;7278033;19;153843;-50
2021/09/06 07:53:08;;;;;;;;;;;;;;;22.35;71.06;102134.06;7276290;19;151848;-50
2021/09/06 07:55:37;;;;;;;;;;;;;;;22.36;71.36;102137.72;7282569;19;153155;-50
2021/09/06 07:58:03;;;;;;;;;;;;;;;22.35;71.27;102142.53;7282152;19;153379;-50
2021/09/06 08:00:30;;;;;;;;;;;;;;;22.37;71.05;102145.06;7283628;19;152304;-50
2021/09/06 08:02:57;;;;;;;;;;;;;;;22.38;71.08;102143.94;7277760;19;153832;-50
2021/09/06 08:05:28;;;;;;;;;;;;;;;22.38;71.35;102143.94;7277932;19;154131;-50
2021/09/06 08:07:55;;;;;;;;;;;;;;;22.40;71.60;102144.47;7280992;19;152599;-50
2021/09/06 08:10:23;;;;;;;;;;;;;;;22.37;71.37;102137.44;7281716;19;153743;-50
2021/09/06 08:12:49;;;;;;;;;;;;;;;22.37;71.86;102145.06;7286718;19;152184;-50
2021/09/06 08:15:16;;;;;;;;;;;;;;;22.37;71.91;102151.53;7286632;19;153546;-51
2021/09/06 08:17:43;;;;;;;;;;;;;;;22.39;71.53;102154.91;7284354;19;154407;-49
2021/09/06 08:20:11;;;;;;;;;;;;;;;22.39;71.53;102154.91;7284508;19;152236;-50
2021/09/06 08:22:38;;;;;;;;;;;;;;;22.40;71.43;102155.72;7289608;19;153383;-50
2021/09/06 08:25:06;;;;;;;;;;;;;;;22.41;71.40;102160.22;7289160;19;151802;-50
2021/09/06 08:27:35;;;;;;;;;;;;;;;22.40;71.95;102165.00;7285252;19;153068;-50
2021/09/06 08:30:02;;;;;;;;;;;;;;;22.39;71.67;102163.34;7283387;19;154150;-50
2021/09/06 08:32:30;;;;;;;;;;;;;;;22.41;71.69;102160.22;7286913;19;152199;-50
2021/09/06 08:34:57;;;;;;;;;;;;;;;22.42;71.85;102167.56;7285216;19;153695;-50
2021/09/06 08:37:24;;;;;;;;;;;;;;;22.41;71.76;102158.25;7285810;19;153390;-51
2021/09/06 08:39:51;;;;;;;;;;;;;;;22.41;71.93;102169.53;7286722;19;152358;-50
2021/09/06 08:42:18;;;;;;;;;;;;;;;22.42;72.07;102165.59;7286369;19;152013;-50
2021/09/06 08:44:46;;;;;;;;;;;;;;;22.42;72.04;102168.41;7294026;19;153242;-51
2021/09/06 08:47:13;;;;;;;;;;;;;;;22.42;72.02;102171.22;7283350;19;153150;-49
2021/09/06 08:49:40;;;;;;;;;;;;;;;22.43;71.85;102167.28;7286950;19;153200;-51
2021/09/06 08:52:08;;;;;;;;;;;;;;;22.43;72.16;102172.06;7282904;19;152041;-50
2021/09/06 08:54:34;;;;;;;;;;;;;;;22.44;72.38;102174.56;7283814;19;152679;-50
2021/09/06 08:57:01;;;;;;;;;;;;;;;22.46;72.12;102177.09;7283589;19;153790;-50
2021/09/06 08:59:28;;;;;;;;;;;;;;;22.46;71.90;102171.47;7285693;19;152005;-49
2021/09/06 09:01:55;;;;;;;;;;;;;;;22.48;72.27;102170.06;7281826;19;152289;-50
2021/09/06 09:04:23;;;;;;;;;;;;;;;22.50;72.44;102166.94;7286473;19;155430;-50
2021/09/06 09:06:53;;;;;;;;;;;;;;;22.49;72.55;102171.72;7293190;19;152131;-50
2021/09/06 09:09:23;;;;;;;;;;;;;;;22.53;72.36;102174.81;7283221;19;152202;-51
2021/09/06 09:11:59;;;;;;;;;;;;;;;22.54;71.96;102176.47;7285545;19;151818;-50
2021/09/06 09:14:26;;;;;;;;;;;;;;;22.54;72.25;102180.13;7285094;19;154721;-50
2021/09/06 09:16:54;;;;;;;;;;;;;;;22.56;72.26;102177.88;7285756;19;153242;-50
2021/09/06 09:19:22;;;;;;;;;;;;;;;22.59;72.21;102182.91;7284548;19;152417;-50
2021/09/06 09:21:53;;;;;;;;;;;;;;;22.59;71.91;102182.91;7283418;19;152696;-50
2021/09/06 09:24:21;;;;;;;;;;;;;;;22.60;72.25;102183.75;7284759;19;154570;-50
2021/09/06 09:26:52;;;;;;;;;;;;;;;22.60;72.07;102190.25;7285586;19;152891;-50
2021/09/06 09:29:19;;;;;;;;;;;;;;;22.62;72.30;102190.78;7291669;19;153230;-50
2021/09/06 09:31:47;;;;;;;;;;;;;;;22.66;72.00;102190.22;7284722;19;153732;-50
2021/09/06 09:34:14;;;;;;;;;;;;;;;22.63;72.44;102186.81;7285363;19;153195;-50
2021/09/06 09:36:42;;;;;;;;;;;;;;;22.65;72.13;102186.53;7281972;19;153900;-50
2021/09/06 09:39:10;;;;;;;;;;;;;;;22.66;71.96;102176.13;7284359;19;153720;-51
2021/09/06 09:41:37;;;;;;;;;;;;;;;22.66;72.36;102176.97;7282490;19;154548;-50
2021/09/06 09:44:06;;;;;;;;;;;;;;;22.69;72.08;102175.53;7283370;19;152642;-50
2021/09/06 09:46:34;;;;;;;;;;;;;;;22.71;72.06;102176.13;7283247;19;151784;-49
2021/09/06 09:49:09;;;;;;;;;;;;;;;22.72;72.06;102174.97;7292368;19;154397;-50
2021/09/06 09:51:36;;;;;;;;;;;;;;;22.75;71.80;102185.66;7282382;19;151758;-50
2021/09/06 09:54:04;;;;;;;;;;;;;;;22.75;71.71;102182.84;7275774;19;153694;-50
2021/09/06 09:56:31;;;;;;;;;;;;;;;22.75;72.08;102185.66;7283730;19;154566;-50
2021/09/06 09:58:59;;;;;;;;;;;;;;;22.77;72.00;102186.19;7282972;19;152251;-50
2021/09/06 10:01:27;;;;;;;;;;;;;;;22.78;72.03;102183.09;7280622;19;153403;-50
2021/09/06 10:03:57;;;;;;;;;;;;;;;22.83;72.23;102185.03;7278540;19;152705;-49
2021/09/06 10:06:25;;;;;;;;;;;;;;;22.84;71.48;102179.13;7283276;19;152240;-50
2021/09/06 10:08:54;;;;;;;;;;;;;;;22.81;70.60;102188.13;7285751;19;154332;-50
2021/09/06 10:11:21;;;;;;;;;;;;;;;22.79;70.91;102183.94;7291590;19;153387;-50
2021/09/06 10:13:47;;;;;;;;;;;;;;;22.81;70.57;102182.50;7283733;19;151812;-50
2021/09/06 10:16:29;;;;;;;;;;;;;;;22.79;71.02;102181.97;7282021;19;153767;-50
2021/09/06 10:19:05;;;;;;;;;;;;;;;22.79;71.38;102172.66;7284700;19;151631;-50
2021/09/06 10:21:38;;;;;;;;;;;;;;;22.79;70.56;102164.22;7282516;19;153229;-50
2021/09/06 10:24:11;;;;;;;;;;;;;;;22.78;70.24;102169.00;7278372;19;154159;-50
2021/09/06 10:26:38;;;;;;;;;;;;;;;22.80;70.11;102161.13;7283144;19;151780;-50
2021/09/06 10:29:15;;;;;;;;;;;;;;;22.80;70.38;102158.28;7281939;19;153099;-50
2021/09/06 10:31:42;;;;;;;;;;;;;;;22.80;70.31;102163.94;7282921;19;153436;-50
2021/09/06 10:34:19;;;;;;;;;;;;;;;22.81;70.24;102162.78;7287294;19;153104;-50
2021/09/06 10:36:54;;;;;;;;;;;;;;;22.81;70.09;102161.94;7281238;19;155579;-50
2021/09/06 10:39:21;;;;;;;;;;;;;;;22.82;70.12;102155.16;7282891;19;151962;-50
2021/09/06 10:41:48;;;;;;;;;;;;;;;22.84;69.99;102158.53;7281762;19;152788;-50
2021/09/06 10:44:15;;;;;;;;;;;;;;;22.83;69.73;102163.34;7284232;19;153710;-49
2021/09/06 10:46:52;;;;;;;;;;;;;;;22.85;69.33;102168.69;7280659;19;151860;-49
2021/09/06 10:49:22;;;;;;;;;;;;;;;22.84;69.53;102162.19;7284492;19;153212;-49
2021/09/06 10:51:49;;;;;;;;;;;;;;;22.85;69.32;102163.84;7278438;19;153473;-50
2021/09/06 10:54:15;;;;;;;;;;;;;;;22.85;68.50;102168.69;7279954;19;151902;-50
2021/09/06 10:56:42;;;;;;;;;;;;;;;22.85;68.47;102157.41;7290430;19;152726;-50
2021/09/06 10:59:09;;;;;;;;;;;;;;;22.89;68.38;102164.13;7282915;19;152434;-50
2021/09/06 11:01:37;;;;;;;;;;;;;;;22.90;68.44;102154.53;7281288;19;153292;-49
2021/09/06 11:04:04;;;;;;;;;;;;;;;22.90;68.37;102157.34;7276776;19;153103;-50
2021/09/06 11:06:31;;;;;;;;;;;;;;;22.93;68.08;102154.78;7282768;19;152752;-50
2021/09/06 11:09:00;;;;;;;;;;;;;;;22.97;68.17;102152.22;7280502;19;152763;-49
2021/09/06 11:11:28;;;;;;;;;;;;;;;22.95;67.77;102146.03;7280667;19;153269;-50
2021/09/06 11:13:55;;;;;;;;;;;;;;;22.97;67.87;102135.31;7284321;19;152288;-49
2021/09/06 11:16:23;;;;;;;;;;;;;;;23.00;67.65;102140.34;7282293;19;153039;-50
2021/09/06 11:18:51;;;;;;;;;;;;;;;22.98;67.66;102125.72;7287952;19;152705;-51
2021/09/06 11:21:19;;;;;;;;;;;;;;;22.99;67.48;102138.66;7281814;19;154798;-50
2021/09/06 11:23:46;;;;;;;;;;;;;;;23.02;67.88;102132.44;7282116;19;154087;-50
2021/09/06 11:26:23;;;;;;;;;;;;;;;23.01;67.47;102128.78;7280627;19;152167;-50
2021/09/06 11:28:49;;;;;;;;;;;;;;;23.04;67.51;102130.16;7283580;19;153076;-50
2021/09/06 11:31:17;;;;;;;;;;;;;;;23.05;67.52;102134.66;7278117;19;152651;-51
2021/09/06 11:33:44;;;;;;;;;;;;;;;23.09;67.02;102134.91;7279810;19;151793;-50
2021/09/06 11:36:16;;;;;;;;;;;;;;;23.10;67.37;102134.63;7278975;19;153014;-50
2021/09/06 11:38:42;;;;;;;;;;;;;;;23.11;67.44;102121.34;7279953;19;153950;-50
2021/09/06 11:41:13;;;;;;;;;;;;;;;23.11;67.22;102133.47;7289130;19;153027;-51
2021/09/06 11:43:40;;;;;;;;;;;;;;;23.12;67.59;102129.53;7280365;19;154245;-51
2021/09/06 11:46:07;;;;;;;;;;;;;;;23.10;67.30;102131.78;7284927;19;151673;-51
2021/09/06 11:48:43;;;;;;;;;;;;;;;23.11;67.79;102133.47;7287637;19;153595;-50
2021/09/06 11:51:10;;;;;;;;;;;;;;;23.11;67.70;102130.66;7287962;19;155275;-50
2021/09/06 11:53:38;;;;;;;;;;;;;;;23.11;67.37;102139.13;7284339;19;152300;-50
2021/09/06 11:56:11;;;;;;;;;;;;;;;23.11;67.82;102132.63;7285050;19;151941;-50
2021/09/06 11:58:47;;;;;;;;;;;;;;;23.09;68.30;102138.56;7285716;19;154868;-50
2021/09/06 12:01:14;;;;;;;;;;;;;;;23.10;68.05;102140.25;7295249;19;153501;-49
2021/09/06 12:03:43;;;;;;;;;;;;;;;23.07;68.10;102138.03;7281298;19;153852;-50
2021/09/06 12:06:12;;;;;;;;;;;;;;;23.08;67.79;102138.88;7284858;19;152393;-50
2021/09/06 12:08:49;;;;;;;;;;;;;;;23.08;68.12;102133.25;7287293;19;157293;-50
2021/09/06 12:11:37;;;;;;;;;;;;;;;23.06;67.89;102144.81;7285911;19;157121;-50
2021/09/06 12:14:06;;;;;;;;;;;;;;;23.05;67.93;102134.66;7287805;19;151900;-50
2021/09/06 12:16:37;;;;;;;;;;;;;;;23.07;67.71;102134.38;7283042;19;152089;-50
2021/09/06 12:19:20;;;;;;;;;;;;;;;23.07;67.70;102135.22;7287234;19;153433;-51
2021/09/06 12:21:48;;;;;;;;;;;;;;;23.05;68.12;102137.47;7284206;19;153152;-51
2021/09/06 12:24:20;;;;;;;;;;;;;;;23.06;67.81;102139.16;7291727;19;152124;-50
2021/09/06 12:26:48;;;;;;;;;;;;;;;23.05;67.81;102146.78;7286013;19;151944;-50
2021/09/06 12:29:31;;;;;;;;;;;;;;;23.04;68.12;102141.44;7283365;19;153560;-51
2021/09/06 12:31:58;;;;;;;;;;;;;;;23.03;68.11;102129.31;7286735;19;154134;-51
2021/09/06 12:34:25;;;;;;;;;;;;;;;23.02;67.83;102141.75;7285254;19;151761;-50
2021/09/06 12:36:58;;;;;;;;;;;;;;;23.03;68.12;102137.75;7288690;19;154434;-50